Time;durP1;ratioP1;P1;durP2;ratioP2;P2;SDS_P1;SDS_P2;PMS_P1;PMS_P2;Temp;Humidity;BMP_temperature;BMP_pressure;BME280_temperature;BME280_humidity;BME280_pressure;Samples;Min_cycle;Max_cycle;Signal;HPM_P1;HPM_P2
2022/07/12 00:00:31;;;;;;;1.15;1.10;;;;;;;23.84;52.36;101152.72;5069845;28;20048;-73
2022/07/12 00:02:59;;;;;;;0.98;0.98;;;;;;;23.85;52.66;101151.56;5071686;28;20369;-73
2022/07/12 00:05:27;;;;;;;3.95;1.38;;;;;;;23.75;51.36;101166.03;5067745;28;20048;-72
2022/07/12 00:07:55;;;;;;;0.95;0.95;;;;;;;23.71;51.40;101151.16;5071597;28;20052;-73
2022/07/12 00:10:23;;;;;;;1.48;1.35;;;;;;;23.69;52.11;101154.31;5069408;28;20488;-73
2022/07/12 00:12:51;;;;;;;1.52;1.20;;;;;;;23.71;51.18;101159.56;5071649;28;20368;-72
2022/07/12 00:15:20;;;;;;;1.73;1.00;;;;;;;23.70;51.22;101146.75;5069179;28;20048;-73
2022/07/12 00:17:48;;;;;;;1.35;1.25;;;;;;;23.65;51.81;101156.19;5071130;28;20044;-73
2022/07/12 00:20:16;;;;;;;1.58;1.10;;;;;;;23.67;51.05;101153.88;5070020;28;20044;-73
2022/07/12 00:22:46;;;;;;;1.48;1.35;;;;;;;23.59;51.23;101152.84;5069756;28;20059;-73
2022/07/12 00:25:14;;;;;;;2.42;1.20;;;;;;;23.64;50.59;101160.16;5070993;28;20059;-73
2022/07/12 00:27:42;;;;;;;1.85;1.45;;;;;;;23.61;52.23;101147.72;5068015;28;20067;-73
2022/07/12 00:30:11;;;;;;;1.50;1.40;;;;;;;23.73;50.40;101144.06;5069584;28;20075;-73
2022/07/12 00:32:38;;;;;;;1.33;1.23;;;;;;;23.78;49.77;101142.97;5069282;28;20045;-73
2022/07/12 00:35:07;;;;;;;2.70;1.08;;;;;;;23.69;48.79;101145.09;5071474;28;20056;-73
2022/07/12 00:37:35;;;;;;;1.67;1.00;;;;;;;23.73;48.34;101148.81;5068921;28;20037;-73
2022/07/12 00:40:06;;;;;;;1.73;0.85;;;;;;;23.76;48.22;101150.91;5070935;28;20053;-73
2022/07/12 00:42:36;;;;;;;1.98;1.10;;;;;;;23.74;47.92;101151.28;5069002;28;20471;-73
2022/07/12 00:45:04;;;;;;;1.25;1.15;;;;;;;23.83;47.73;101153.91;5070625;28;20060;-73
2022/07/12 00:47:40;;;;;;;1.33;0.98;;;;;;;23.78;48.45;101148.56;5070404;28;20040;-73
2022/07/12 00:50:12;;;;;;;1.00;1.00;;;;;;;23.79;47.77;101149.41;5060337;28;20044;-73
2022/07/12 00:52:42;;;;;;;1.20;0.82;;;;;;;23.80;48.32;101151.81;5064839;28;20051;-73
2022/07/12 00:55:12;;;;;;;1.13;1.02;;;;;;;23.81;47.65;101153.47;5071556;28;20040;-73
2022/07/12 00:57:44;;;;;;;1.00;1.00;;;;;;;23.72;47.66;101150.00;5068437;28;20052;-73
2022/07/12 01:00:15;;;;;;;2.22;1.17;;;;;;;23.74;47.23;101147.66;5068638;28;20051;-73
2022/07/12 01:02:44;;;;;;;1.00;1.00;;;;;;;23.79;47.26;101141.81;5054907;28;20052;-73
2022/07/12 01:05:13;;;;;;;3.15;0.77;;;;;;;23.86;47.10;101153.16;5057506;28;20385;-73
2022/07/12 01:07:42;;;;;;;1.33;1.00;;;;;;;23.82;47.02;101141.09;5055284;28;20048;-73
2022/07/12 01:10:10;;;;;;;2.05;1.00;;;;;;;23.73;47.04;101152.44;5057444;28;20044;-73
2022/07/12 01:12:38;;;;;;;1.48;0.90;;;;;;;23.71;48.27;101156.75;5055193;28;20479;-73
2022/07/12 01:15:07;;;;;;;0.77;0.77;;;;;;;23.80;48.39;101154.59;5057461;28;20053;-73
2022/07/12 01:17:36;;;;;;;2.22;1.00;;;;;;;23.84;46.30;101157.50;5055086;28;20514;-73
2022/07/12 01:20:06;;;;;;;1.10;0.90;;;;;;;23.93;47.26;101154.53;5055248;28;20052;-73
2022/07/12 01:22:36;;;;;;;0.90;0.90;;;;;;;23.91;46.85;101149.31;5054812;28;20041;-73
2022/07/12 01:25:06;;;;;;;0.63;0.63;;;;;;;23.97;46.41;101147.88;5055900;28;20052;-73
2022/07/12 01:27:42;;;;;;;1.00;0.65;;;;;;;23.96;47.12;101151.03;5055821;28;20048;-73
2022/07/12 01:30:18;;;;;;;1.10;1.00;;;;;;;23.99;47.15;101145.53;5055527;28;20052;-73
2022/07/12 01:33:00;;;;;;;1.02;0.90;;;;;;;24.06;46.12;101150.50;5054083;28;20049;-73
2022/07/12 01:35:28;;;;;;;3.45;1.05;;;;;;;24.06;46.39;101152.47;5057018;28;20053;-73
2022/07/12 01:37:56;;;;;;;1.20;0.70;;;;;;;24.22;46.01;101155.31;5057421;28;20052;-73
2022/07/12 01:40:24;;;;;;;1.13;1.00;;;;;;;24.13;46.31;101147.94;5064601;28;20053;-73
2022/07/12 01:42:53;;;;;;;1.58;1.23;;;;;;;24.05;46.87;101143.28;5058412;28;20044;-73
2022/07/12 01:45:22;;;;;;;1.48;0.98;;;;;;;24.03;47.95;101140.03;5054374;28;20419;-73
2022/07/12 01:47:49;;;;;;;0.77;0.77;;;;;;;24.05;47.30;101151.66;5056645;28;20044;-73
2022/07/12 01:50:17;;;;;;;1.25;1.00;;;;;;;24.11;47.24;101146.66;5060332;28;20398;-73
2022/07/12 01:52:45;;;;;;;1.38;1.23;;;;;;;24.15;47.88;101161.56;5071520;28;20068;-73
2022/07/12 01:55:14;;;;;;;0.80;0.80;;;;;;;24.11;47.36;101144.69;5071889;28;20048;-73
2022/07/12 01:57:43;;;;;;;1.27;1.10;;;;;;;24.16;47.50;101144.41;5072058;28;20095;-73
2022/07/12 02:00:12;;;;;;;1.10;1.00;;;;;;;24.08;47.92;101148.19;5071287;28;20487;-73
2022/07/12 02:02:41;;;;;;;2.35;1.20;;;;;;;24.16;48.01;101147.19;5071899;28;20398;-73
2022/07/12 02:05:09;;;;;;;1.00;1.00;;;;;;;24.10;48.12;101145.03;5071708;28;20049;-73
2022/07/12 02:07:39;;;;;;;0.98;0.90;;;;;;;24.25;47.89;101149.03;5071912;28;20507;-73
2022/07/12 02:10:07;;;;;;;1.35;1.13;;;;;;;24.19;47.99;101148.47;5071695;28;20407;-73
2022/07/12 02:12:36;;;;;;;1.58;1.20;;;;;;;24.28;48.54;101156.66;5072203;28;20695;-73
2022/07/12 02:15:07;;;;;;;1.65;1.27;;;;;;;24.34;49.22;101149.63;5071551;28;20052;-73
2022/07/12 02:17:36;;;;;;;1.15;1.05;;;;;;;24.40;48.80;101152.97;5071904;28;20041;-73
2022/07/12 02:20:05;;;;;;;1.98;1.17;;;;;;;24.36;49.19;101147.31;5071705;28;20063;-73
2022/07/12 02:22:34;;;;;;;2.00;1.30;;;;;;;24.24;50.61;101158.59;5071225;28;20052;-73
2022/07/12 02:25:02;;;;;;;1.10;1.00;;;;;;;24.20;51.13;101144.50;5071677;28;20059;-73
2022/07/12 02:27:30;;;;;;;1.17;1.05;;;;;;;24.27;51.88;101155.88;5071224;28;20052;-73
2022/07/12 02:29:58;;;;;;;1.35;1.10;;;;;;;24.30;53.16;101159.94;5071698;28;20052;-73
2022/07/12 02:32:26;;;;;;;1.90;1.38;;;;;;;24.26;52.64;101159.84;5071516;28;20100;-73
2022/07/12 02:34:54;;;;;;;2.05;0.90;;;;;;;24.24;52.94;101161.38;5071204;28;20056;-73
2022/07/12 02:37:21;;;;;;;2.45;1.40;;;;;;;24.28;53.68;101160.28;5071413;28;20499;-73
2022/07/12 02:39:49;;;;;;;0.90;0.90;;;;;;;24.30;53.45;101159.94;5071568;28;20028;-73
2022/07/12 02:42:20;;;;;;;1.30;1.20;;;;;;;24.32;53.51;101162.34;5071428;28;20040;-73
2022/07/12 02:44:48;;;;;;;1.25;1.00;;;;;;;24.24;53.83;101156.59;5071300;28;20053;-73
2022/07/12 02:47:16;;;;;;;2.35;1.02;;;;;;;24.21;54.30;101162.09;5071474;28;20044;-73
2022/07/12 02:49:44;;;;;;;1.60;1.15;;;;;;;24.20;54.26;101160.47;5071085;28;20040;-73
2022/07/12 02:52:12;;;;;;;1.63;1.40;;;;;;;24.18;54.41;101162.81;5071559;28;20041;-73
2022/07/12 02:54:39;;;;;;;1.88;1.40;;;;;;;24.19;54.82;101156.84;5071522;28;20051;-73
2022/07/12 02:57:07;;;;;;;1.80;1.02;;;;;;;24.12;55.00;101159.47;5057755;28;20053;-73
2022/07/12 02:59:35;;;;;;;3.95;1.13;;;;;;;24.12;55.05;101165.88;5070866;28;20051;-73
2022/07/12 03:02:03;;;;;;;1.17;1.05;;;;;;;24.17;55.10;101156.41;5070218;28;20052;-73
2022/07/12 03:04:31;;;;;;;1.23;1.05;;;;;;;24.10;55.45;101161.81;5061252;28;20064;-73
2022/07/12 03:06:59;;;;;;;0.88;0.88;;;;;;;24.07;55.74;101162.50;5070704;28;20048;-73
2022/07/12 03:09:27;;;;;;;1.10;1.00;;;;;;;24.03;55.36;101159.59;5072082;28;20052;-73
2022/07/12 03:11:55;;;;;;;2.35;1.40;;;;;;;23.98;55.55;101171.88;5069959;28;20059;-73
2022/07/12 03:14:23;;;;;;;1.20;1.10;;;;;;;23.99;55.68;101162.31;5071059;28;20045;-73
2022/07/12 03:16:51;;;;;;;1.48;1.20;;;;;;;23.98;55.74;101165.47;5071062;28;20041;-73
2022/07/12 03:19:19;;;;;;;0.82;0.82;;;;;;;23.98;55.72;101171.88;5069925;28;20028;-73
2022/07/12 03:21:47;;;;;;;1.40;1.15;;;;;;;23.91;55.69;101173.66;5075014;28;20450;-72
2022/07/12 03:24:14;;;;;;;1.13;1.02;;;;;;;23.82;55.98;101174.63;5074910;28;20060;-73
2022/07/12 03:26:42;;;;;;;1.00;1.00;;;;;;;23.83;56.19;101167.88;5074344;28;20044;-72
2022/07/12 03:29:11;;;;;;;2.40;1.60;;;;;;;23.97;56.11;101169.44;5074105;28;20060;-72
2022/07/12 03:31:39;;;;;;;1.08;1.08;;;;;;;23.98;55.94;101176.63;5074317;28;20490;-72
2022/07/12 03:34:07;;;;;;;1.27;1.05;;;;;;;23.93;56.45;101165.72;5073691;28;20399;-73
2022/07/12 03:36:35;;;;;;;1.88;1.33;;;;;;;23.80;56.46;101174.16;5074338;28;20494;-72
2022/07/12 03:39:02;;;;;;;1.27;1.20;;;;;;;23.73;56.70;101176.75;5074458;28;20402;-72
2022/07/12 03:41:31;;;;;;;1.30;1.17;;;;;;;23.76;56.68;101176.06;5074258;28;20051;-72
2022/07/12 03:43:58;;;;;;;3.85;1.23;;;;;;;23.89;56.35;101174.81;5074281;28;20041;-72
2022/07/12 03:46:26;;;;;;;1.02;1.02;;;;;;;23.84;56.39;101183.47;5073082;28;20052;-72
2022/07/12 03:48:54;;;;;;;1.73;1.40;;;;;;;23.70;56.95;101195.06;5067087;28;20041;-73
2022/07/12 03:51:22;;;;;;;1.73;1.20;;;;;;;23.71;56.79;101190.28;5072880;28;20055;-72
2022/07/12 03:53:50;;;;;;;1.80;1.27;;;;;;;23.70;57.21;101185.88;5058061;28;20052;-73
2022/07/12 03:59:05;;;;;;;1.38;0.98;;;;;;;23.82;57.18;101190.56;5065060;28;20053;-72
2022/07/12 04:01:33;;;;;;;2.45;1.40;;;;;;;23.77;57.03;101188.88;5061660;28;20044;-72
2022/07/12 04:04:02;;;;;;;1.30;1.10;;;;;;;23.83;56.23;101197.78;5056055;28;20045;-72
2022/07/12 04:06:30;;;;;;;1.40;1.35;;;;;;;23.77;56.76;101200.03;5058346;28;20399;-72
2022/07/12 04:08:58;;;;;;;1.20;1.10;;;;;;;23.82;56.73;101202.59;5067660;28;20381;-72
2022/07/12 04:11:26;;;;;;;1.15;1.05;;;;;;;23.79;56.71;101203.28;5056243;28;20049;-72
2022/07/12 04:13:54;;;;;;;1.98;1.33;;;;;;;23.86;57.01;101197.09;5057539;28;20076;-72
2022/07/12 04:16:22;;;;;;;2.63;1.27;;;;;;;23.91;56.33;101210.81;5055721;28;20045;-72
2022/07/12 04:18:50;;;;;;;1.15;1.00;;;;;;;23.91;56.23;101201.59;5058273;28;20395;-71
2022/07/12 04:21:19;;;;;;;3.08;1.27;;;;;;;24.04;55.75;101197.56;5055721;28;20049;-72
2022/07/12 04:23:46;;;;;;;1.65;1.13;;;;;;;24.00;55.76;101202.25;5058106;28;20528;-72
2022/07/12 04:26:14;;;;;;;4.60;1.38;;;;;;;23.88;55.81;101206.75;5058228;28;20049;-72
2022/07/12 04:28:42;;;;;;;1.98;1.05;;;;;;;23.85;55.69;101212.25;5070765;28;20372;-72
2022/07/12 04:31:10;;;;;;;1.95;1.35;;;;;;;23.82;56.57;101208.16;5065275;28;20077;-72
2022/07/12 04:33:38;;;;;;;4.57;1.30;;;;;;;24.06;55.19;101214.00;5071621;28;20055;-82
2022/07/12 04:36:15;;;;;;;1.38;1.10;;;;;;;24.30;53.93;101199.09;5035658;28;20056;-81
2022/07/12 04:38:53;;;;;;;2.58;1.42;;;;;;;24.52;53.29;101200.44;5037381;28;20044;-82
2022/07/12 04:41:21;;;;;;;2.03;0.80;;;;;;;24.58;52.99;101209.34;5045346;28;20578;-82
2022/07/12 04:43:52;;;;;;;2.90;1.30;;;;;;;24.66;52.79;101208.38;5052247;28;20056;-82
2022/07/12 04:46:20;;;;;;;1.20;1.02;;;;;;;24.70;53.13;101209.25;5048653;28;20418;-82
2022/07/12 04:48:48;;;;;;;1.20;0.82;;;;;;;24.68;53.33;101208.81;5046458;28;20049;-82
2022/07/12 04:51:17;;;;;;;0.93;0.93;;;;;;;24.73;53.19;101204.94;5043750;28;20399;-82
2022/07/12 04:53:45;;;;;;;1.08;0.98;;;;;;;24.40;54.38;101200.53;5037971;28;20578;-82
2022/07/12 04:56:13;;;;;;;3.42;1.10;;;;;;;24.54;54.26;101202.88;5052889;28;20061;-82
2022/07/12 04:58:41;;;;;;;1.27;1.17;;;;;;;24.64;53.84;101207.91;5051513;28;20635;-82
2022/07/12 05:01:10;;;;;;;1.13;1.02;;;;;;;24.74;54.03;101209.38;5053069;28;20052;-82
2022/07/12 05:03:38;;;;;;;2.63;1.20;;;;;;;24.88;53.49;101211.72;5045629;28;20047;-83
2022/07/12 05:06:06;;;;;;;1.88;1.35;;;;;;;24.68;54.11;101208.03;5051698;28;20044;-83
2022/07/12 05:08:34;;;;;;;1.35;1.25;;;;;;;24.73;54.14;101204.13;5049542;28;20056;-82
2022/07/12 05:11:02;;;;;;;6.63;1.52;;;;;;;24.61;54.24;101216.22;5048653;28;20049;-83
2022/07/12 05:13:30;;;;;;;1.33;1.25;;;;;;;24.55;54.04;101210.09;5056659;28;20406;-81
2022/07/12 05:15:58;;;;;;;1.80;1.48;;;;;;;24.65;53.98;101212.34;5041284;28;20396;-82
2022/07/12 05:18:26;;;;;;;1.67;1.00;;;;;;;24.66;54.30;101210.34;5062651;28;20056;-81
2022/07/12 05:20:54;;;;;;;1.40;1.13;;;;;;;25.00;53.47;101215.56;5071088;28;20046;-81
2022/07/12 05:23:22;;;;;;;3.20;1.42;;;;;;;25.00;53.27;101218.38;5068734;28;20071;-81
2022/07/12 05:25:50;;;;;;;1.40;1.30;;;;;;;25.15;52.83;101219.50;5066723;28;20041;-81
2022/07/12 05:28:18;;;;;;;1.55;1.35;;;;;;;24.95;53.19;101211.06;5068784;28;20406;-81
2022/07/12 05:30:46;;;;;;;2.67;1.42;;;;;;;25.03;53.09;101221.25;5067029;28;20056;-81
2022/07/12 05:33:14;;;;;;;1.50;1.40;;;;;;;25.13;52.90;101219.91;5067387;28;20044;-83
2022/07/12 05:35:42;;;;;;;1.23;1.10;;;;;;;25.09;53.12;101224.59;5064795;28;20390;-82
2022/07/12 05:38:10;;;;;;;1.50;1.40;;;;;;;25.10;53.43;101220.63;5061738;28;20092;-83
2022/07/12 05:40:38;;;;;;;1.40;1.30;;;;;;;25.10;53.31;101223.41;5054030;28;20048;-83
2022/07/12 05:43:06;;;;;;;1.65;1.50;;;;;;;24.94;53.78;101218.66;5054663;28;20049;-85
2022/07/12 05:45:34;;;;;;;1.52;1.38;;;;;;;25.03;53.71;101229.66;5053440;28;20060;-84
2022/07/12 05:48:04;;;;;;;1.42;1.33;;;;;;;25.00;53.81;101232.38;5056929;28;20860;-84
2022/07/12 05:50:32;;;;;;;2.85;1.52;;;;;;;24.87;54.15;101238.09;5069236;28;20040;-83
2022/07/12 05:55:46;;;;;;;4.18;1.30;;;;;;;25.09;53.55;101233.00;5067129;28;20497;-84
2022/07/12 05:58:14;;;;;;;3.42;1.38;;;;;;;25.27;52.95;101243.81;5066167;28;20051;-83
2022/07/12 06:00:43;;;;;;;1.30;1.20;;;;;;;25.09;53.39;101244.19;5069330;28;20040;-83
2022/07/12 06:03:11;;;;;;;1.83;1.42;;;;;;;24.94;53.92;101243.84;5069329;28;20052;-83
2022/07/12 06:05:40;;;;;;;2.92;1.30;;;;;;;24.98;54.08;101255.16;5067586;28;20037;-84
2022/07/12 06:08:11;;;;;;;1.38;1.30;;;;;;;25.14;53.50;101251.50;5067584;28;20347;-83
2022/07/12 06:10:39;;;;;;;1.70;1.60;;;;;;;25.12;53.76;101256.66;5079717;28;20041;-83
2022/07/12 06:13:09;;;;;;;1.45;1.23;;;;;;;25.20;53.46;101255.63;5068721;28;20499;-83
2022/07/12 06:15:37;;;;;;;0.98;0.90;;;;;;;24.98;54.37;101254.34;5067227;28;20041;-82
2022/07/12 06:18:05;;;;;;;1.45;0.93;;;;;;;25.19;53.80;101254.03;5069161;28;20048;-84
2022/07/12 06:20:33;;;;;;;0.93;0.93;;;;;;;25.03;53.86;101254.06;5068712;28;20040;-82
2022/07/12 06:23:02;;;;;;;2.45;1.23;;;;;;;25.19;53.84;101259.63;5063450;28;20041;-84
2022/07/12 06:25:30;;;;;;;2.08;1.40;;;;;;;25.16;54.15;101268.78;5060637;28;20036;-83
2022/07/12 06:28:12;;;;;;;1.20;1.10;;;;;;;25.00;54.78;101274.38;5068966;28;20048;-82
2022/07/12 06:30:41;;;;;;;1.30;1.20;;;;;;;25.14;54.17;101277.53;5063769;28;20688;-82
2022/07/12 06:33:09;;;;;;;2.33;1.35;;;;;;;25.18;54.24;101281.19;5063977;28;20055;-84
2022/07/12 06:35:37;;;;;;;0.95;0.90;;;;;;;25.13;54.45;101275.91;5064906;28;20047;-83
2022/07/12 06:38:05;;;;;;;1.30;1.20;;;;;;;25.27;54.25;101283.81;5062590;28;20115;-83
2022/07/12 06:40:33;;;;;;;1.52;1.40;;;;;;;25.52;54.48;101291.16;5069029;28;20855;-84
2022/07/12 06:43:01;;;;;;;2.38;1.40;;;;;;;25.56;53.95;101284.47;5074035;28;20051;-83
2022/07/12 06:45:29;;;;;;;1.48;1.23;;;;;;;25.68;53.82;101285.53;5074927;28;20045;-83
2022/07/12 06:47:57;;;;;;;1.08;0.98;;;;;;;25.65;54.02;101292.69;5073886;28;20075;-83
2022/07/12 06:50:24;;;;;;;1.35;1.05;;;;;;;25.66;53.64;101296.31;5075007;28;20040;-83
2022/07/12 06:52:52;;;;;;;1.17;1.02;;;;;;;25.48;54.39;101291.09;5073874;28;20048;-82
2022/07/12 06:55:21;;;;;;;1.73;1.25;;;;;;;25.64;53.68;101299.47;5074906;28;20044;-84
2022/07/12 06:57:49;;;;;;;1.20;1.10;;;;;;;25.52;54.16;101296.78;5073798;28;20040;-83
2022/07/12 07:00:17;;;;;;;1.13;1.00;;;;;;;25.66;53.92;101308.31;5074658;28;20044;-83
2022/07/12 07:02:45;;;;;;;1.02;0.98;;;;;;;25.76;53.19;101307.75;5074886;28;20045;-82
2022/07/12 07:05:15;;;;;;;1.40;1.30;;;;;;;25.67;53.58;101304.34;5074762;28;20041;-83
2022/07/12 07:07:43;;;;;;;3.30;1.30;;;;;;;25.98;53.02;101311.00;5073559;28;20049;-84
2022/07/12 07:10:11;;;;;;;1.55;1.20;;;;;;;26.14;52.51;101319.34;5074622;28;20036;-81
2022/07/12 07:12:39;;;;;;;1.15;1.15;;;;;;;25.81;53.09;101311.44;5074754;28;20033;-82
2022/07/12 07:15:07;;;;;;;1.30;1.10;;;;;;;25.69;53.85;101316.00;5074530;28;20410;-83
2022/07/12 07:17:35;;;;;;;1.10;1.00;;;;;;;25.87;53.11;101310.78;5074567;28;20394;-83
2022/07/12 07:20:04;;;;;;;2.92;1.75;;;;;;;25.74;53.73;101323.31;5074314;28;20040;-83
2022/07/12 07:22:32;;;;;;;1.30;1.20;;;;;;;25.91;53.42;101316.47;5074540;28;20037;-82
2022/07/12 07:25:00;;;;;;;1.42;1.10;;;;;;;25.74;53.37;101317.69;5074285;28;20398;-82
2022/07/12 07:27:28;;;;;;;2.05;1.40;;;;;;;25.97;53.29;101326.22;5072998;28;20075;-83
2022/07/12 07:32:42;;;;;;;2.88;1.42;;;;;;;26.33;52.02;101336.56;5074318;28;20037;-83
2022/07/12 07:35:10;;;;;;;2.65;1.20;;;;;;;26.48;51.62;101321.63;5074235;28;20487;-83
2022/07/12 07:37:38;;;;;;;1.92;1.20;;;;;;;26.19;52.42;101326.63;5074067;28;20394;-83
2022/07/12 07:40:07;;;;;;;0.90;0.90;;;;;;;26.43;51.49;101319.09;5074073;28;20059;-82
2022/07/12 07:42:35;;;;;;;3.10;1.30;;;;;;;26.21;52.13;101321.50;5074172;28;20057;-85
2022/07/12 07:45:06;;;;;;;4.35;1.20;;;;;;;26.15;52.32;101312.53;5073692;28;20049;-81
2022/07/12 07:47:49;;;;;;;1.15;1.05;;;;;;;26.27;52.07;101324.81;5073876;28;20056;-83
2022/07/12 07:50:38;;;;;;;0.75;0.75;;;;;;;26.63;51.22;101316.28;5073219;28;20037;-84
2022/07/12 07:53:06;;;;;;;1.10;1.00;;;;;;;26.55;50.50;101318.94;5073894;28;20633;-82
2022/07/12 07:55:34;;;;;;;1.15;1.05;;;;;;;26.70;50.53;101316.41;5073593;28;20041;-84
2022/07/12 07:58:02;;;;;;;4.18;1.23;;;;;;;26.74;49.99;101314.47;5073994;28;20056;-82
2022/07/12 08:00:30;;;;;;;1.50;1.27;;;;;;;26.96;50.28;101320.47;5073581;28;20049;-82
2022/07/12 08:02:58;;;;;;;0.90;0.90;;;;;;;26.67;50.32;101317.97;5073731;28;20053;-85
2022/07/12 08:05:25;;;;;;;1.40;1.30;;;;;;;26.88;50.08;101315.91;5073564;28;20045;-81
2022/07/12 08:07:56;;;;;;;2.35;1.30;;;;;;;26.95;49.73;101310.44;5073479;28;20049;-84
2022/07/12 08:10:25;;;;;;;1.40;1.17;;;;;;;26.78;49.75;101309.72;5072034;28;20059;-84
2022/07/12 08:12:53;;;;;;;0.93;0.93;;;;;;;26.92;49.13;101306.38;5073687;28;20036;-82
2022/07/12 08:15:22;;;;;;;1.92;1.20;;;;;;;27.13;48.40;101295.88;5073411;28;20052;-82
2022/07/12 08:17:49;;;;;;;1.13;1.05;;;;;;;27.08;47.34;101306.22;5073613;28;20056;-83
2022/07/12 08:20:24;;;;;;;2.30;1.13;;;;;;;26.90;48.06;101302.28;5073304;28;20048;-82
2022/07/12 08:23:12;;;;;;;0.70;0.70;;;;;;;27.08;46.88;101303.41;5073531;28;20502;-82
2022/07/12 08:25:40;;;;;;;1.67;1.00;;;;;;;27.11;46.94;101307.47;5073260;28;20040;-81
2022/07/12 08:28:08;;;;;;;1.33;1.00;;;;;;;27.00;47.51;101304.50;5073293;28;20033;-81
2022/07/12 08:30:36;;;;;;;2.33;0.90;;;;;;;27.21;47.03;101300.38;5073190;28;20040;-82
2022/07/12 08:33:12;;;;;;;1.08;1.05;;;;;;;27.44;46.65;101307.94;5073304;28;20056;-82
2022/07/12 08:35:41;;;;;;;3.53;1.45;;;;;;;27.49;46.80;101299.19;5073014;28;20403;-82
2022/07/12 08:38:10;;;;;;;1.33;0.98;;;;;;;27.58;45.84;101313.81;5073164;28;20056;-82
2022/07/12 08:40:38;;;;;;;1.00;1.00;;;;;;;27.50;45.19;101312.06;5073138;28;20517;-82
2022/07/12 08:43:06;;;;;;;1.08;0.93;;;;;;;27.65;45.53;101320.72;5073119;28;20049;-82
2022/07/12 08:45:34;;;;;;;1.45;0.82;;;;;;;27.61;45.32;101313.06;5072678;28;20060;-82
2022/07/12 08:48:02;;;;;;;0.90;0.90;;;;;;;27.74;44.41;101310.81;5071571;28;20055;-81
2022/07/12 08:50:30;;;;;;;1.92;1.20;;;;;;;27.94;43.81;101318.31;5072757;28;20051;-84
2022/07/12 08:52:59;;;;;;;3.00;1.40;;;;;;;28.09;43.27;101320.06;5072778;28;20032;-81
2022/07/12 08:55:34;;;;;;;1.10;1.00;;;;;;;27.67;44.09;101321.97;5059319;28;20045;-82
2022/07/12 08:58:05;;;;;;;1.23;1.23;;;;;;;27.74;42.58;101329.69;5064093;28;20479;-80
2022/07/12 09:00:34;;;;;;;1.90;1.30;;;;;;;27.62;43.04;101320.28;5072516;28;20041;-83
2022/07/12 09:03:04;;;;;;;1.40;1.30;;;;;;;27.91;43.32;101314.25;5070564;28;20054;-81
2022/07/12 09:05:33;;;;;;;1.42;1.15;;;;;;;28.19;41.73;101318.56;5072839;28;20467;-80
2022/07/12 09:08:02;;;;;;;3.78;1.25;;;;;;;28.28;41.67;101316.31;5071172;28;20051;-81
2022/07/12 09:10:31;;;;;;;1.38;1.20;;;;;;;28.60;40.47;101314.22;5072558;28;20044;-82
2022/07/12 09:13:00;;;;;;;2.42;1.00;;;;;;;28.80;40.04;101323.25;5072332;28;20052;-81
2022/07/12 09:15:28;;;;;;;1.40;1.20;;;;;;;28.63;40.70;101319.88;5072512;28;20513;-82
2022/07/12 09:18:02;;;;;;;1.50;1.38;;;;;;;28.74;40.70;101321.97;5071167;28;20045;-82
2022/07/12 09:20:32;;;;;;;1.98;1.40;;;;;;;29.01;40.07;101327.44;5072211;28;20044;-82
2022/07/12 09:23:04;;;;;;;1.10;0.82;;;;;;;28.65;38.95;101322.31;5072368;28;20056;-82
2022/07/12 09:25:32;;;;;;;1.20;1.10;;;;;;;28.63;39.48;101319.06;5072252;28;20063;-80
2022/07/12 09:28:05;;;;;;;1.30;1.13;;;;;;;28.51;39.37;101308.91;5072229;28;20051;-82
2022/07/12 09:30:36;;;;;;;0.93;0.90;;;;;;;28.55;39.89;101318.97;5072380;28;20047;-82
2022/07/12 09:36:12;;;;;;;1.40;1.25;;;;;;;28.89;38.75;101315.31;5071000;28;20048;-82
2022/07/12 09:38:54;;;;;;;1.27;1.10;;;;;;;28.84;35.75;101319.25;5071861;28;20036;-81
2022/07/12 09:41:22;;;;;;;0.77;0.77;;;;;;;28.91;36.85;101317.72;5072038;28;20040;-82
2022/07/12 09:43:52;;;;;;;2.53;1.35;;;;;;;28.86;38.77;101307.63;5072100;28;20041;-81
2022/07/12 09:46:20;;;;;;;5.05;1.60;;;;;;;29.10;39.11;101322.31;5071734;28;20049;-82
2022/07/12 09:48:48;;;;;;;4.55;1.23;;;;;;;29.01;39.18;101300.09;5071875;28;20045;-82
2022/07/12 09:51:17;;;;;;;1.35;1.13;;;;;;;29.27;39.34;101312.34;5070816;28;20413;-82
2022/07/12 09:53:47;;;;;;;1.38;1.27;;;;;;;29.12;40.15;101300.16;5072100;28;20044;-82
2022/07/12 09:56:18;;;;;;;1.85;1.60;;;;;;;29.38;39.70;101301.97;5070755;28;20059;-81
2022/07/12 09:58:53;;;;;;;2.65;1.50;;;;;;;29.44;40.29;101310.88;5071710;28;20380;-82
2022/07/12 10:01:23;;;;;;;2.33;1.33;;;;;;;29.56;39.58;101300.50;5070807;28;20045;-83
2022/07/12 10:03:52;;;;;;;2.05;1.65;;;;;;;29.71;39.69;101302.16;5071666;28;20487;-82
2022/07/12 10:06:26;;;;;;;1.20;1.10;;;;;;;29.91;38.08;101296.22;5071952;28;20044;-82
2022/07/12 10:09:03;;;;;;;1.40;1.30;;;;;;;29.74;37.79;101295.75;5071644;28;20049;-82
2022/07/12 10:11:31;;;;;;;1.30;1.00;;;;;;;29.84;37.19;101282.06;5071824;28;20041;-82
2022/07/12 10:14:21;;;;;;;2.38;1.20;;;;;;;30.28;37.71;101299.97;5072905;28;20040;-82
2022/07/12 10:16:54;;;;;;;1.65;1.55;;;;;;;30.18;37.47;101301.56;5074773;28;20047;-83
2022/07/12 10:19:31;;;;;;;1.45;1.35;;;;;;;30.07;36.86;101286.56;5075803;28;20773;-83
2022/07/12 10:22:00;;;;;;;3.78;1.50;;;;;;;30.50;36.92;101286.69;5075818;28;20146;-83
2022/07/12 10:24:47;;;;;;;1.40;1.30;;;;;;;30.55;36.62;101288.31;5075697;28;20044;-84
2022/07/12 10:27:28;;;;;;;;;;;;;;;30.90;36.75;101289.56;5075945;28;20040;-83
2022/07/12 10:30:13;;;;;;;5.00;1.63;;;;;;;30.76;36.32;101293.19;5075732;28;19928;-83
2022/07/12 10:32:44;;;;;;;1.52;1.08;;;;;;;30.41;36.07;101280.63;5075709;28;20301;-83
2022/07/12 10:35:15;;;;;;;1.13;1.13;;;;;;;30.16;36.72;101276.53;5075561;28;20410;-83
2022/07/12 10:38:12;;;;;;;1.35;1.08;;;;;;;30.79;36.83;101278.25;5061707;28;20041;-83
2022/07/12 10:40:44;;;;;;;0.90;0.90;;;;;;;30.64;35.42;101273.78;5075483;28;20037;-83
2022/07/12 10:43:15;;;;;;;1.42;1.40;;;;;;;29.90;36.86;101280.47;5075489;28;20041;-82
2022/07/12 10:45:44;;;;;;;1.65;1.45;;;;;;;29.74;37.85;101267.53;5075031;28;20071;-83
2022/07/12 10:48:12;;;;;;;1.38;1.27;;;;;;;29.55;38.06;101268.66;5075264;28;20475;-84
2022/07/12 10:50:45;;;;;;;1.35;1.25;;;;;;;29.83;38.38;101253.06;5063879;28;20063;-83
2022/07/12 10:53:19;;;;;;;2.65;1.00;;;;;;;30.02;37.54;101254.72;5068944;28;20040;-83
2022/07/12 10:56:09;;;;;;;1.23;1.15;;;;;;;30.01;36.45;101253.09;5069579;28;20040;-83
2022/07/12 10:58:41;;;;;;;1.02;1.02;;;;;;;30.13;36.92;101248.31;5070104;28;20036;-83
2022/07/12 11:01:13;;;;;;;1.80;1.35;;;;;;;29.74;36.77;101246.97;5072278;28;20060;-83
2022/07/12 11:03:51;;;;;;;1.15;1.10;;;;;;;30.41;35.83;101241.09;5071816;28;20568;-83
2022/07/12 11:06:22;;;;;;;3.38;1.50;;;;;;;30.61;35.43;101249.19;5065100;28;20036;-82
2022/07/12 11:08:52;;;;;;;1.30;1.20;;;;;;;30.30;35.59;101246.75;5070738;28;20475;-82
2022/07/12 11:11:26;;;;;;;1.45;1.35;;;;;;;30.23;36.06;101249.53;5065162;28;20056;-81
2022/07/12 11:13:58;;;;;;;1.30;1.20;;;;;;;30.21;35.85;101237.84;5068753;28;20057;-81
2022/07/12 11:16:29;;;;;;;1.45;1.35;;;;;;;29.94;35.57;101229.69;5071795;28;20409;-82
2022/07/12 11:18:58;;;;;;;1.40;1.30;;;;;;;29.85;35.75;101244.19;5069522;28;20044;-82
2022/07/12 11:21:26;;;;;;;1.48;1.08;;;;;;;29.86;36.41;101238.16;5072459;28;20047;-81
2022/07/12 11:23:54;;;;;;;1.27;1.17;;;;;;;30.49;35.94;101234.25;5069913;28;20044;-82
2022/07/12 11:26:22;;;;;;;1.40;1.33;;;;;;;30.78;35.87;101237.09;5069003;28;20051;-82
2022/07/12 11:28:51;;;;;;;1.30;1.30;;;;;;;31.16;35.04;101238.63;5069970;28;20384;-82
2022/07/12 11:31:21;;;;;;;2.40;1.60;;;;;;;31.48;35.24;101232.13;5070740;28;20056;-82
2022/07/12 11:33:51;;;;;;;3.17;1.60;;;;;;;31.46;34.46;101228.88;5071133;28;20071;-83
2022/07/12 11:36:19;;;;;;;1.63;1.40;;;;;;;31.46;34.83;101231.69;5071362;28;20040;-83
2022/07/12 11:38:47;;;;;;;1.73;1.38;;;;;;;31.73;35.39;101239.69;5070095;28;20071;-83
2022/07/12 11:41:15;;;;;;;1.40;1.30;;;;;;;31.58;35.78;101234.09;5066772;28;20044;-82
2022/07/12 11:43:43;;;;;;;1.58;1.48;;;;;;;31.79;35.47;101229.53;5070092;28;20486;-82
2022/07/12 11:46:13;;;;;;;1.65;1.33;;;;;;;31.70;35.23;101230.00;5068040;28;20053;-81